sensor_id;sensor_type;location;lat;lon;timestamp;pressure;altitude;pressure_sealevel;temperature;humidity
78182;BME280;67441;50.116;8.696;2023-04-01T00:00:18;98609.13;;;10.41;68.08
78182;BME280;67441;50.116;8.696;2023-04-01T00:00:44;98477.09;;;9.68;68.06
78182;BME280;67441;50.116;8.696;2023-04-01T00:01:12;98603.06;;;10.39;67.85
78182;BME280;67441;50.116;8.696;2023-04-01T00:01:41;98601.25;;;10.41;67.82
78182;BME280;67441;50.116;8.696;2023-04-01T00:02:06;98604.72;;;10.43;67.84
78182;BME280;67441;50.116;8.696;2023-04-01T00:02:32;98570.06;;;10.18;67.96
78182;BME280;67441;50.116;8.696;2023-04-01T00:02:57;98563.13;;;10.11;68.07
78182;BME280;67441;50.116;8.696;2023-04-01T00:03:25;98523.03;;;9.98;68.36
78182;BME280;67441;50.116;8.696;2023-04-01T00:03:52;98523.09;;;9.94;67.97
78182;BME280;67441;50.116;8.696;2023-04-01T00:04:19;98481.41;;;9.72;67.87
78182;BME280;67441;50.116;8.696;2023-04-01T00:04:45;98373.88;;;9.06;67.96
78182;BME280;67441;50.116;8.696;2023-04-01T00:05:10;98609.94;;;10.45;67.69
78182;BME280;67441;50.116;8.696;2023-04-01T00:05:36;98562.34;;;10.06;67.88
78182;BME280;67441;50.116;8.696;2023-04-01T00:06:01;98597.66;;;10.45;67.80
78182;BME280;67441;50.116;8.696;2023-04-01T00:06:27;98484.84;;;9.76;67.83
78182;BME280;67441;50.116;8.696;2023-04-01T00:06:52;98597.66;;;10.47;67.52
78182;BME280;67441;50.116;8.696;2023-04-01T00:07:18;98602.97;;;10.44;67.62
78182;BME280;67441;50.116;8.696;2023-04-01T00:07:43;98596.84;;;10.43;67.86
78182;BME280;67441;50.116;8.696;2023-04-01T00:08:09;98531.78;;;9.99;67.80
78182;BME280;67441;50.116;8.696;2023-04-01T00:08:34;98602.97;;;10.44;67.55
78182;BME280;67441;50.116;8.696;2023-04-01T00:09:00;98582.19;;;10.27;67.62
78182;BME280;67441;50.116;8.696;2023-04-01T00:09:25;98601.25;;;10.41;67.73
78182;BME280;67441;50.116;8.696;2023-04-01T00:09:51;98598.66;;;10.40;67.79
78182;BME280;67441;50.116;8.696;2023-04-01T00:10:16;98602.97;;;10.42;67.77
78182;BME280;67441;50.116;8.696;2023-04-01T00:10:42;98561.41;;;10.12;67.97
78182;BME280;67441;50.116;8.696;2023-04-01T00:11:07;98598.69;;;10.37;67.89
78182;BME280;67441;50.116;8.696;2023-04-01T00:11:32;98595.25;;;10.33;67.83
78182;BME280;67441;50.116;8.696;2023-04-01T00:11:58;98606.63;;;10.34;68.14
78182;BME280;67441;50.116;8.696;2023-04-01T00:12:23;98500.56;;;9.79;68.05
78182;BME280;67441;50.116;8.696;2023-04-01T00:12:50;98461.63;;;9.50;67.98
78182;BME280;67441;50.116;8.696;2023-04-01T00:13:15;98601.25;;;10.41;68.26
78182;BME280;67441;50.116;8.696;2023-04-01T00:13:41;98555.97;;;10.22;67.97
78182;BME280;67441;50.116;8.696;2023-04-01T00:14:08;98605.50;;;10.50;67.94
78182;BME280;67441;50.116;8.696;2023-04-01T00:14:33;98592.53;;;10.38;67.86
78182;BME280;67441;50.116;8.696;2023-04-01T00:15:00;98563.91;;;10.18;68.21
78182;BME280;67441;50.116;8.696;2023-04-01T00:15:26;98599.56;;;10.37;67.93
78182;BME280;67441;50.116;8.696;2023-04-01T00:15:53;98374.63;;;9.16;67.50
78182;BME280;67441;50.116;8.696;2023-04-01T00:16:19;98600.28;;;10.45;67.77
78182;BME280;67441;50.116;8.696;2023-04-01T00:16:44;98325.19;;;8.87;67.63
78182;BME280;67441;50.116;8.696;2023-04-01T00:17:09;98589.91;;;10.39;67.84
78182;BME280;67441;50.116;8.696;2023-04-01T00:17:36;98559.59;;;10.15;67.81
78182;BME280;67441;50.116;8.696;2023-04-01T00:18:01;98600.53;;;10.32;67.98
78182;BME280;67441;50.116;8.696;2023-04-01T00:18:27;98578.72;;;10.23;68.00
78182;BME280;67441;50.116;8.696;2023-04-01T00:18:52;98600.47;;;10.36;67.90
78182;BME280;67441;50.116;8.696;2023-04-01T00:19:17;98593.50;;;10.34;68.47
78182;BME280;67441;50.116;8.696;2023-04-01T00:19:43;98602.16;;;10.40;68.05
78182;BME280;67441;50.116;8.696;2023-04-01T00:20:09;98602.16;;;10.40;67.68
78182;BME280;67441;50.116;8.696;2023-04-01T00:20:38;98564.66;;;10.24;68.07
78182;BME280;67441;50.116;8.696;2023-04-01T00:21:03;98595.88;;;10.47;67.75
78182;BME280;67441;50.116;8.696;2023-04-01T00:21:28;98594.13;;;10.48;67.61
78182;BME280;67441;50.116;8.696;2023-04-01T00:21:54;98595.03;;;10.45;67.66
78182;BME280;67441;50.116;8.696;2023-04-01T00:22:19;98586.38;;;10.40;67.59
78182;BME280;67441;50.116;8.696;2023-04-01T00:22:46;98576.91;;;10.30;67.80
78182;BME280;67441;50.116;8.696;2023-04-01T00:23:11;98597.75;;;10.41;68.00
78182;BME280;67441;50.116;8.696;2023-04-01T00:23:37;98416.28;;;9.39;67.63
78182;BME280;67441;50.116;8.696;2023-04-01T00:24:02;98603.00;;;10.41;67.92
78182;BME280;67441;50.116;8.696;2023-04-01T00:24:28;98578.66;;;10.28;67.93
78182;BME280;67441;50.116;8.696;2023-04-01T00:24:53;98596.88;;;10.40;67.99
78182;BME280;67441;50.116;8.696;2023-04-01T00:25:18;98595.94;;;10.46;67.84
78182;BME280;67441;50.116;8.696;2023-04-01T00:25:44;98489.09;;;9.85;67.77
78182;BME280;67441;50.116;8.696;2023-04-01T00:26:11;98595.81;;;10.52;68.18
78182;BME280;67441;50.116;8.696;2023-04-01T00:26:37;98595.78;;;10.54;67.75
78182;BME280;67441;50.116;8.696;2023-04-01T00:27:03;98604.56;;;10.53;67.75
78182;BME280;67441;50.116;8.696;2023-04-01T00:27:28;98598.44;;;10.52;67.93
78182;BME280;67441;50.116;8.696;2023-04-01T00:27:53;98554.16;;;10.24;67.64
78182;BME280;67441;50.116;8.696;2023-04-01T00:28:19;98592.34;;;10.48;68.19
78182;BME280;67441;50.116;8.696;2023-04-01T00:28:45;98578.56;;;10.36;67.81
78182;BME280;67441;50.116;8.696;2023-04-01T00:29:11;98594.22;;;10.43;67.93
78182;BME280;67441;50.116;8.696;2023-04-01T00:29:36;98587.28;;;10.39;67.76
78182;BME280;67441;50.116;8.696;2023-04-01T00:30:01;98580.19;;;10.43;68.07
78182;BME280;67441;50.116;8.696;2023-04-01T00:30:27;98592.50;;;10.41;68.25
78182;BME280;67441;50.116;8.696;2023-04-01T00:30:52;98583.69;;;10.42;67.94
78182;BME280;67441;50.116;8.696;2023-04-01T00:31:18;98528.34;;;9.94;67.59
78182;BME280;67441;50.116;8.696;2023-04-01T00:31:44;98589.81;;;10.42;67.72
78182;BME280;67441;50.116;8.696;2023-04-01T00:32:09;98591.59;;;10.42;68.17
78182;BME280;67441;50.116;8.696;2023-04-01T00:32:35;98585.50;;;10.38;67.61
78182;BME280;67441;50.116;8.696;2023-04-01T00:33:00;98538.50;;;10.18;67.83
78182;BME280;67441;50.116;8.696;2023-04-01T00:33:26;98593.25;;;10.47;67.67
78182;BME280;67441;50.116;8.696;2023-04-01T00:33:52;98585.28;;;10.52;67.63
78182;BME280;67441;50.116;8.696;2023-04-01T00:34:18;98599.34;;;10.51;67.58
78182;BME280;67441;50.116;8.696;2023-04-01T00:34:43;98450.75;;;9.73;67.24
78182;BME280;67441;50.116;8.696;2023-04-01T00:35:10;98363.19;;;9.20;67.60
78182;BME280;67441;50.116;8.696;2023-04-01T00:35:36;98517.66;;;10.06;67.83
78182;BME280;67441;50.116;8.696;2023-04-01T00:36:16;98549.72;;;10.30;67.76
78182;BME280;67441;50.116;8.696;2023-04-01T00:36:42;98606.38;;;10.49;67.72
78182;BME280;67441;50.116;8.696;2023-04-01T00:37:08;98586.28;;;10.46;67.62
78182;BME280;67441;50.116;8.696;2023-04-01T00:37:36;98592.41;;;10.45;67.60
78182;BME280;67441;50.116;8.696;2023-04-01T00:38:02;98595.06;;;10.44;67.94
78182;BME280;67441;50.116;8.696;2023-04-01T00:38:28;98587.97;;;10.49;67.81
78182;BME280;67441;50.116;8.696;2023-04-01T00:38:54;98590.72;;;10.43;67.77
78182;BME280;67441;50.116;8.696;2023-04-01T00:39:20;98570.72;;;10.31;67.95
78182;BME280;67441;50.116;8.696;2023-04-01T00:39:46;98527.34;;;10.03;67.81
78182;BME280;67441;50.116;8.696;2023-04-01T00:40:23;98589.00;;;10.40;67.95
78182;BME280;67441;50.116;8.696;2023-04-01T00:40:48;98511.00;;;9.85;68.14
78182;BME280;67441;50.116;8.696;2023-04-01T00:41:14;98588.28;;;10.32;68.24
78182;BME280;67441;50.116;8.696;2023-04-01T00:41:40;98492.84;;;9.70;68.09
78182;BME280;67441;50.116;8.696;2023-04-01T00:42:06;98591.78;;;10.31;67.91
78182;BME280;67441;50.116;8.696;2023-04-01T00:42:31;98594.41;;;10.31;68.27
78182;BME280;67441;50.116;8.696;2023-04-01T00:42:57;98570.06;;;10.17;68.33
78182;BME280;67441;50.116;8.696;2023-04-01T00:43:22;98593.50;;;10.34;68.09
78182;BME280;67441;50.116;8.696;2023-04-01T00:43:50;98590.81;;;10.37;68.40
78182;BME280;67441;50.116;8.696;2023-04-01T00:44:23;98568.19;;;10.27;68.26
78182;BME280;67441;50.116;8.696;2023-04-01T00:44:53;98569.19;;;10.16;68.10
78182;BME280;67441;50.116;8.696;2023-04-01T00:45:37;98602.28;;;10.31;68.20
78182;BME280;67441;50.116;8.696;2023-04-01T00:46:03;98549.13;;;10.11;68.37
78182;BME280;67441;50.116;8.696;2023-04-01T00:46:28;98595.31;;;10.30;68.31
78182;BME280;67441;50.116;8.696;2023-04-01T00:46:54;98603.19;;;10.29;68.62
78182;BME280;67441;50.116;8.696;2023-04-01T00:47:22;98594.44;;;10.30;68.68
78182;BME280;67441;50.116;8.696;2023-04-01T00:47:48;98452.94;;;9.46;68.09
78182;BME280;67441;50.116;8.696;2023-04-01T00:48:15;98588.28;;;10.31;68.49
78182;BME280;67441;50.116;8.696;2023-04-01T00:48:47;98465.91;;;9.56;67.75
78182;BME280;67441;50.116;8.696;2023-04-01T00:49:15;98590.00;;;10.32;67.80
78182;BME280;67441;50.116;8.696;2023-04-01T00:49:44;98590.94;;;10.29;68.05
78182;BME280;67441;50.116;8.696;2023-04-01T00:50:10;98542.22;;;10.05;68.20
78182;BME280;67441;50.116;8.696;2023-04-01T00:50:36;98596.22;;;10.28;68.09
78182;BME280;67441;50.116;8.696;2023-04-01T00:51:19;98400.78;;;9.20;68.25
78182;BME280;67441;50.116;8.696;2023-04-01T00:51:47;98586.56;;;10.30;68.27
78182;BME280;67441;50.116;8.696;2023-04-01T00:52:16;98580.44;;;10.29;68.34
78182;BME280;67441;50.116;8.696;2023-04-01T00:52:42;98500.56;;;9.79;68.32
78182;BME280;67441;50.116;8.696;2023-04-01T00:53:08;98545.66;;;10.09;68.53
78182;BME280;67441;50.116;8.696;2023-04-01T00:53:43;98549.06;;;10.14;68.21
78182;BME280;67441;50.116;8.696;2023-04-01T00:54:10;98453.50;;;9.65;68.07
78182;BME280;67441;50.116;8.696;2023-04-01T00:54:38;98595.13;;;10.41;67.87
78182;BME280;67441;50.116;8.696;2023-04-01T00:55:08;98471.75;;;9.73;67.85
78182;BME280;67441;50.116;8.696;2023-04-01T00:55:40;98588.94;;;10.43;67.83
78182;BME280;67441;50.116;8.696;2023-04-01T00:56:10;98570.84;;;10.23;67.95
78182;BME280;67441;50.116;8.696;2023-04-01T00:56:39;98486.47;;;9.85;68.01
78182;BME280;67441;50.116;8.696;2023-04-01T00:57:13;98560.22;;;10.31;67.71
78182;BME280;67441;50.116;8.696;2023-04-01T00:57:43;98604.78;;;10.39;68.27
78182;BME280;67441;50.116;8.696;2023-04-01T00:58:14;98494.28;;;9.89;67.72
78182;BME280;67441;50.116;8.696;2023-04-01T00:58:46;98587.31;;;10.35;68.05
78182;BME280;67441;50.116;8.696;2023-04-01T00:59:22;98454.63;;;9.49;67.96
78182;BME280;67441;50.116;8.696;2023-04-01T00:59:50;98572.59;;;10.23;67.71
78182;BME280;67441;50.116;8.696;2023-04-01T01:00:17;98593.44;;;10.37;67.91
78182;BME280;67441;50.116;8.696;2023-04-01T01:00:44;98567.38;;;10.20;68.17
78182;BME280;67441;50.116;8.696;2023-04-01T01:01:11;98590.91;;;10.32;67.88
78182;BME280;67441;50.116;8.696;2023-04-01T01:01:36;98555.16;;;10.17;67.77
78182;BME280;67441;50.116;8.696;2023-04-01T01:02:02;98583.88;;;10.33;67.70
78182;BME280;67441;50.116;8.696;2023-04-01T01:02:28;98489.16;;;9.80;68.00
78182;BME280;67441;50.116;8.696;2023-04-01T01:02:55;98589.91;;;10.38;67.93
78182;BME280;67441;50.116;8.696;2023-04-01T01:03:21;98590.00;;;10.32;67.53
78182;BME280;67441;50.116;8.696;2023-04-01T01:03:46;98520.56;;;9.89;67.50
78182;BME280;67441;50.116;8.696;2023-04-01T01:04:23;98605.66;;;10.41;67.86
78182;BME280;67441;50.116;8.696;2023-04-01T01:04:49;98578.56;;;10.36;67.71
78182;BME280;67441;50.116;8.696;2023-04-01T01:05:15;98581.16;;;10.37;67.52
78182;BME280;67441;50.116;8.696;2023-04-01T01:06:55;98594.13;;;10.50;67.38
78182;BME280;67441;50.116;8.696;2023-04-01T01:08:57;98555.91;;;10.27;67.40
78182;BME280;67441;50.116;8.696;2023-04-01T01:09:28;98588.75;;;10.54;66.82
78182;BME280;67441;50.116;8.696;2023-04-01T01:10:24;98591.41;;;10.53;66.87
78182;BME280;67441;50.116;8.696;2023-04-01T01:10:51;98533.47;;;10.05;67.05
78182;BME280;67441;50.116;8.696;2023-04-01T01:11:22;98488.50;;;9.67;67.27
78182;BME280;67441;50.116;8.696;2023-04-01T01:12:11;98590.75;;;10.40;67.46
78182;BME280;67441;50.116;8.696;2023-04-01T01:12:44;98590.72;;;10.43;67.42
78182;BME280;67441;50.116;8.696;2023-04-01T01:13:53;98590.63;;;10.47;67.06
78182;BME280;67441;50.116;8.696;2023-04-01T01:14:40;98554.13;;;10.29;67.19
78182;BME280;67441;50.116;8.696;2023-04-01T01:15:12;98595.16;;;10.39;67.18
78182;BME280;67441;50.116;8.696;2023-04-01T01:15:58;98603.00;;;10.41;66.68
78182;BME280;67441;50.116;8.696;2023-04-01T01:16:35;98533.47;;;10.03;66.73
78182;BME280;67441;50.116;8.696;2023-04-01T01:17:48;98546.47;;;10.12;67.24
78182;BME280;67441;50.116;8.696;2023-04-01T01:18:59;98577.84;;;10.23;67.03
78182;BME280;67441;50.116;8.696;2023-04-01T01:21:01;98590.03;;;10.29;67.01
78182;BME280;67441;50.116;8.696;2023-04-01T01:21:42;98573.50;;;10.20;67.31
78182;BME280;67441;50.116;8.696;2023-04-01T01:24:27;98580.63;;;10.15;67.05
78182;BME280;67441;50.116;8.696;2023-04-01T01:25:40;98595.34;;;10.24;67.11
78182;BME280;67441;50.116;8.696;2023-04-01T01:26:53;98562.31;;;10.09;67.03
78182;BME280;67441;50.116;8.696;2023-04-01T01:27:20;98525.91;;;9.85;66.91
78182;BME280;67441;50.116;8.696;2023-04-01T01:27:57;98543.16;;;10.01;67.10
78182;BME280;67441;50.116;8.696;2023-04-01T01:30:25;98600.72;;;10.18;67.20
78182;BME280;67441;50.116;8.696;2023-04-01T01:32:03;98597.09;;;10.25;66.71
78182;BME280;67441;50.116;8.696;2023-04-01T01:34:47;98604.06;;;10.31;66.86
78182;BME280;67441;50.116;8.696;2023-04-01T01:35:40;98601.47;;;10.28;66.69
78182;BME280;67441;50.116;8.696;2023-04-01T01:36:12;98607.63;;;10.27;67.29
78182;BME280;67441;50.116;8.696;2023-04-01T01:36:40;98603.25;;;10.24;67.08
78182;BME280;67441;50.116;8.696;2023-04-01T01:37:14;98613.75;;;10.27;66.59
78182;BME280;67441;50.116;8.696;2023-04-01T01:37:42;98599.75;;;10.27;66.55
78182;BME280;67441;50.116;8.696;2023-04-01T01:38:23;98606.75;;;10.24;66.67
78182;BME280;67441;50.116;8.696;2023-04-01T01:38:50;98600.63;;;10.24;66.98
78182;BME280;67441;50.116;8.696;2023-04-01T01:39:17;98604.16;;;10.23;66.58
78182;BME280;67441;50.116;8.696;2023-04-01T01:39:50;98586.78;;;10.13;66.89
78182;BME280;67441;50.116;8.696;2023-04-01T01:40:17;98601.66;;;10.15;66.69
78182;BME280;67441;50.116;8.696;2023-04-01T01:40:46;98573.75;;;10.05;67.18
78182;BME280;67441;50.116;8.696;2023-04-01T01:41:13;98607.72;;;10.19;67.30
78182;BME280;67441;50.116;8.696;2023-04-01T01:41:42;98607.69;;;10.22;66.82
78182;BME280;67441;50.116;8.696;2023-04-01T01:42:13;98547.66;;;9.94;67.03
78182;BME280;67441;50.116;8.696;2023-04-01T01:42:44;98602.19;;;10.37;67.02
78182;BME280;67441;50.116;8.696;2023-04-01T01:43:14;98561.34;;;10.15;66.81
78182;BME280;67441;50.116;8.696;2023-04-01T01:43:43;98605.88;;;10.24;66.53
78182;BME280;67441;50.116;8.696;2023-04-01T01:44:12;98602.28;;;10.33;66.62
78182;BME280;67441;50.116;8.696;2023-04-01T01:44:40;98607.53;;;10.33;66.83
78182;BME280;67441;50.116;8.696;2023-04-01T01:45:08;98586.75;;;10.14;67.03
78182;BME280;67441;50.116;8.696;2023-04-01T01:45:37;98463.44;;;9.46;66.74
78182;BME280;67441;50.116;8.696;2023-04-01T01:46:09;98591.81;;;10.28;66.83
78182;BME280;67441;50.116;8.696;2023-04-01T01:46:36;98601.34;;;10.37;66.40
78182;BME280;67441;50.116;8.696;2023-04-01T01:47:03;98609.22;;;10.35;66.77
78182;BME280;67441;50.116;8.696;2023-04-01T01:47:31;98609.22;;;10.37;66.54
78182;BME280;67441;50.116;8.696;2023-04-01T01:47:58;98598.84;;;10.29;66.97
78182;BME280;67441;50.116;8.696;2023-04-01T01:48:26;98470.28;;;9.57;66.48
78182;BME280;67441;50.116;8.696;2023-04-01T01:48:53;98604.91;;;10.31;66.64
78182;BME280;67441;50.116;8.696;2023-04-01T01:49:20;98535.50;;;9.87;66.89
78182;BME280;67441;50.116;8.696;2023-04-01T01:49:46;98517.19;;;9.81;66.82
78182;BME280;67441;50.116;8.696;2023-04-01T01:50:13;98608.59;;;10.19;67.31
78182;BME280;67441;50.116;8.696;2023-04-01T01:50:41;98597.22;;;10.19;67.04
78182;BME280;67441;50.116;8.696;2023-04-01T01:51:08;98507.72;;;9.69;67.20
78182;BME280;67441;50.116;8.696;2023-04-01T01:51:33;98602.31;;;10.30;66.90
78182;BME280;67441;50.116;8.696;2023-04-01T01:51:59;98611.09;;;10.30;66.89
78182;BME280;67441;50.116;8.696;2023-04-01T01:52:26;98601.47;;;10.28;66.72
78182;BME280;67441;50.116;8.696;2023-04-01T01:53:04;98572.81;;;10.09;66.84
78182;BME280;67441;50.116;8.696;2023-04-01T01:53:30;98596.22;;;10.28;66.93
78182;BME280;67441;50.116;8.696;2023-04-01T01:53:55;98594.44;;;10.30;66.97
78182;BME280;67441;50.116;8.696;2023-04-01T01:54:21;98604.91;;;10.31;66.83
78182;BME280;67441;50.116;8.696;2023-04-01T01:54:51;98604.09;;;10.28;66.92
78182;BME280;67441;50.116;8.696;2023-04-01T01:55:28;98578.97;;;10.07;66.79
78182;BME280;67441;50.116;8.696;2023-04-01T01:55:55;98481.94;;;9.39;67.30
78182;BME280;67441;50.116;8.696;2023-04-01T01:56:22;98595.44;;;10.19;67.48
78182;BME280;67441;50.116;8.696;2023-04-01T01:56:51;98427.19;;;9.11;66.93
78182;BME280;67441;50.116;8.696;2023-04-01T01:57:27;98493.06;;;9.55;66.96
78182;BME280;67441;50.116;8.696;2023-04-01T01:57:56;98500.03;;;9.57;67.26
78182;BME280;67441;50.116;8.696;2023-04-01T01:58:43;98601.69;;;10.11;67.54
78182;BME280;67441;50.116;8.696;2023-04-01T01:59:10;98601.69;;;10.11;67.25
78182;BME280;67441;50.116;8.696;2023-04-01T01:59:38;98602.56;;;10.13;67.31
78182;BME280;67441;50.116;8.696;2023-04-01T02:00:07;98594.75;;;10.08;67.21
78182;BME280;67441;50.116;8.696;2023-04-01T02:00:39;98572.00;;;10.06;67.01
78182;BME280;67441;50.116;8.696;2023-04-01T02:01:11;98608.59;;;10.18;67.07
78182;BME280;67441;50.116;8.696;2023-04-01T02:01:41;98577.25;;;10.06;67.29
78182;BME280;67441;50.116;8.696;2023-04-01T02:02:08;98601.59;;;10.18;67.29
78182;BME280;67441;50.116;8.696;2023-04-01T02:02:35;98430.66;;;9.13;66.75
78182;BME280;67441;50.116;8.696;2023-04-01T02:03:01;98598.94;;;10.20;67.35
78182;BME280;67441;50.116;8.696;2023-04-01T02:03:28;98582.44;;;10.12;67.48
78182;BME280;67441;50.116;8.696;2023-04-01T02:03:56;98541.78;;;9.75;67.24
78182;BME280;67441;50.116;8.696;2023-04-01T02:04:22;98452.22;;;9.34;66.99
78182;BME280;67441;50.116;8.696;2023-04-01T02:04:49;98603.34;;;10.18;66.99
78182;BME280;67441;50.116;8.696;2023-04-01T02:05:19;98605.91;;;10.21;67.15
78182;BME280;67441;50.116;8.696;2023-04-01T02:05:45;98603.28;;;10.22;67.21
78182;BME280;67441;50.116;8.696;2023-04-01T02:06:15;98598.91;;;10.21;67.26
78182;BME280;67441;50.116;8.696;2023-04-01T02:06:47;98560.72;;;9.99;67.28
78182;BME280;67441;50.116;8.696;2023-04-01T02:07:25;98572.78;;;10.12;67.30
78182;BME280;67441;50.116;8.696;2023-04-01T02:07:55;98597.16;;;10.22;67.40
78182;BME280;67441;50.116;8.696;2023-04-01T02:08:28;98578.03;;;10.12;67.77
78182;BME280;67441;50.116;8.696;2023-04-01T02:09:01;98598.84;;;10.28;67.37
78182;BME280;67441;50.116;8.696;2023-04-01T02:09:28;98597.13;;;10.27;67.18
78182;BME280;67441;50.116;8.696;2023-04-01T02:09:55;98578.91;;;10.11;67.59
78182;BME280;67441;50.116;8.696;2023-04-01T02:10:25;98581.59;;;10.08;67.33
78182;BME280;67441;50.116;8.696;2023-04-01T02:11:03;98600.69;;;10.19;67.41
78182;BME280;67441;50.116;8.696;2023-04-01T02:11:42;98580.66;;;10.11;67.35
78182;BME280;67441;50.116;8.696;2023-04-01T02:12:11;98571.06;;;10.10;67.32
78182;BME280;67441;50.116;8.696;2023-04-01T02:12:38;98571.91;;;10.10;67.23
78182;BME280;67441;50.116;8.696;2023-04-01T02:13:09;98524.22;;;9.79;67.16
78182;BME280;67441;50.116;8.696;2023-04-01T02:13:44;98564.19;;;9.99;67.14
78182;BME280;67441;50.116;8.696;2023-04-01T02:14:15;98604.13;;;10.24;67.24
78182;BME280;67441;50.116;8.696;2023-04-01T02:15:05;98596.41;;;10.14;67.85
78182;BME280;67441;50.116;8.696;2023-04-01T02:15:36;98599.03;;;10.14;68.06
78182;BME280;67441;50.116;8.696;2023-04-01T02:16:06;98594.66;;;10.11;68.02
78182;BME280;67441;50.116;8.696;2023-04-01T02:16:55;98605.16;;;10.14;67.46
78182;BME280;67441;50.116;8.696;2023-04-01T02:17:25;98573.00;;;9.98;68.02
78182;BME280;67441;50.116;8.696;2023-04-01T02:17:51;98572.06;;;10.01;67.82
78182;BME280;67441;50.116;8.696;2023-04-01T02:18:18;98519.03;;;9.74;67.66
78182;BME280;67441;50.116;8.696;2023-04-01T02:18:47;98565.19;;;9.92;67.73
78182;BME280;67441;50.116;8.696;2023-04-01T02:19:15;98525.25;;;9.69;67.67
78182;BME280;67441;50.116;8.696;2023-04-01T02:19:57;98599.94;;;10.11;67.52
78182;BME280;67441;50.116;8.696;2023-04-01T02:20:24;98591.19;;;10.11;68.11
78182;BME280;67441;50.116;8.696;2023-04-01T02:20:52;98546.88;;;9.88;68.00
78182;BME280;67441;50.116;8.696;2023-04-01T02:21:20;98596.53;;;10.06;67.80
78182;BME280;67441;50.116;8.696;2023-04-01T02:21:47;98602.69;;;10.05;68.14
78182;BME280;67441;50.116;8.696;2023-04-01T02:22:18;98521.84;;;9.64;68.08
78182;BME280;67441;50.116;8.696;2023-04-01T02:22:51;98470.44;;;9.44;67.81
78182;BME280;67441;50.116;8.696;2023-04-01T02:23:18;98474.81;;;9.45;67.53
78182;BME280;67441;50.116;8.696;2023-04-01T02:23:45;98448.00;;;9.25;67.40
78182;BME280;67441;50.116;8.696;2023-04-01T02:24:14;98516.53;;;9.65;67.88
78182;BME280;67441;50.116;8.696;2023-04-01T02:24:41;98609.38;;;10.24;67.66
78182;BME280;67441;50.116;8.696;2023-04-01T02:25:18;98597.06;;;10.28;67.53
78182;BME280;67441;50.116;8.696;2023-04-01T02:25:45;98562.44;;;10.00;67.15
78182;BME280;67441;50.116;8.696;2023-04-01T02:26:11;98607.59;;;10.30;67.47
78182;BME280;67441;50.116;8.696;2023-04-01T02:26:38;98567.59;;;10.06;67.19
78182;BME280;67441;50.116;8.696;2023-04-01T02:27:05;98592.59;;;10.36;67.51
78182;BME280;67441;50.116;8.696;2023-04-01T02:27:31;98607.47;;;10.37;67.23
78182;BME280;67441;50.116;8.696;2023-04-01T02:27:56;98593.44;;;10.37;66.96
78182;BME280;67441;50.116;8.696;2023-04-01T02:28:24;98590.00;;;10.32;66.58
78182;BME280;67441;50.116;8.696;2023-04-01T02:28:54;98582.25;;;10.21;67.33
78182;BME280;67441;50.116;8.696;2023-04-01T02:29:24;98562.44;;;10.00;67.54
78182;BME280;67441;50.116;8.696;2023-04-01T02:29:56;98505.03;;;9.72;67.14
78182;BME280;67441;50.116;8.696;2023-04-01T02:30:23;98595.38;;;10.26;67.63
78182;BME280;67441;50.116;8.696;2023-04-01T02:30:50;98570.19;;;10.09;67.36
78182;BME280;67441;50.116;8.696;2023-04-01T02:31:16;98501.69;;;9.64;67.73
78182;BME280;67441;50.116;8.696;2023-04-01T02:31:42;98600.59;;;10.27;67.52
78182;BME280;67441;50.116;8.696;2023-04-01T02:32:08;98598.84;;;10.28;67.18
78182;BME280;67441;50.116;8.696;2023-04-01T02:32:36;98584.94;;;10.19;67.21
78182;BME280;67441;50.116;8.696;2023-04-01T02:33:05;98482.50;;;9.58;67.19
78182;BME280;67441;50.116;8.696;2023-04-01T02:33:31;98598.00;;;10.24;67.56
78182;BME280;67441;50.116;8.696;2023-04-01T02:33:57;98594.50;;;10.23;67.35
78182;BME280;67441;50.116;8.696;2023-04-01T02:34:24;98517.31;;;9.73;67.08
78182;BME280;67441;50.116;8.696;2023-04-01T02:34:50;98606.91;;;10.14;67.23
78182;BME280;67441;50.116;8.696;2023-04-01T02:35:17;98605.97;;;10.19;67.69
78182;BME280;67441;50.116;8.696;2023-04-01T02:35:42;98594.59;;;10.19;67.52
78182;BME280;67441;50.116;8.696;2023-04-01T02:36:14;98607.91;;;10.08;67.82
78182;BME280;67441;50.116;8.696;2023-04-01T02:36:39;98538.25;;;9.76;67.70
78182;BME280;67441;50.116;8.696;2023-04-01T02:37:05;98492.25;;;9.51;67.41
78182;BME280;67441;50.116;8.696;2023-04-01T02:37:30;98592.03;;;10.13;67.75
78182;BME280;67441;50.116;8.696;2023-04-01T02:37:56;98441.84;;;9.24;67.51
78182;BME280;67441;50.116;8.696;2023-04-01T02:38:21;98593.72;;;10.18;67.48
78182;BME280;67441;50.116;8.696;2023-04-01T02:38:48;98588.59;;;10.08;67.46
78182;BME280;67441;50.116;8.696;2023-04-01T02:39:15;98447.84;;;9.34;67.51
78182;BME280;67441;50.116;8.696;2023-04-01T02:39:41;98594.63;;;10.16;67.12
78182;BME280;67441;50.116;8.696;2023-04-01T02:40:09;98555.47;;;9.97;67.10
78182;BME280;67441;50.116;8.696;2023-04-01T02:40:50;98570.97;;;10.14;67.25
78182;BME280;67441;50.116;8.696;2023-04-01T02:41:15;98590.16;;;10.21;67.17
78182;BME280;67441;50.116;8.696;2023-04-01T02:41:41;98594.63;;;10.16;67.42
78182;BME280;67441;50.116;8.696;2023-04-01T02:42:07;98506.84;;;9.69;67.42
78182;BME280;67441;50.116;8.696;2023-04-01T02:42:33;98598.06;;;10.18;67.38
78182;BME280;67441;50.116;8.696;2023-04-01T02:42:58;98512.94;;;9.72;67.38
78182;BME280;67441;50.116;8.696;2023-04-01T02:43:24;98593.72;;;10.17;67.47
78182;BME280;67441;50.116;8.696;2023-04-01T02:43:49;98555.53;;;9.93;67.58
78182;BME280;67441;50.116;8.696;2023-04-01T02:44:15;98599.94;;;10.11;67.19
78182;BME280;67441;50.116;8.696;2023-04-01T02:44:40;98528.81;;;9.65;67.52
78182;BME280;67441;50.116;8.696;2023-04-01T02:45:06;98591.19;;;10.12;67.53
78182;BME280;67441;50.116;8.696;2023-04-01T02:45:31;98604.22;;;10.18;68.00
78182;BME280;67441;50.116;8.696;2023-04-01T02:45:57;98589.38;;;10.16;66.88
78182;BME280;67441;50.116;8.696;2023-04-01T02:46:22;98601.56;;;10.20;67.21
78182;BME280;67441;50.116;8.696;2023-04-01T02:46:48;98592.81;;;10.18;66.92
78182;BME280;67441;50.116;8.696;2023-04-01T02:47:13;98581.53;;;10.11;67.31